createdAt,value
2023-03-03T00:01:57.576Z,1.10
2023-03-03T00:05:05.692Z,1.25
2023-03-03T00:08:11.109Z,1.15
2023-03-03T00:11:16.658Z,1.40
2023-03-03T00:14:25.358Z,1.77
2023-03-03T00:17:32.198Z,1.55
2023-03-03T00:20:42.441Z,1.25
2023-03-03T00:23:48.201Z,1.20
2023-03-03T00:26:55.743Z,1.30
2023-03-03T00:30:01.354Z,0.80
2023-03-03T00:33:16.124Z,1.00
2023-03-03T00:36:32.966Z,1.33
2023-03-03T00:39:39.344Z,1.08
2023-03-03T00:42:45.485Z,1.05
2023-03-03T00:45:51.720Z,1.17
2023-03-03T00:48:57.034Z,1.48
2023-03-03T00:52:04.965Z,1.40
2023-03-03T00:55:11.326Z,1.38
2023-03-03T00:58:18.809Z,1.30
2023-03-03T01:01:26.218Z,1.00
2023-03-03T01:04:32.642Z,1.50
2023-03-03T01:07:40.787Z,0.90
2023-03-03T01:10:47.280Z,2.05
2023-03-03T01:13:53.782Z,1.02
2023-03-03T01:16:59.168Z,1.33
2023-03-03T01:20:04.702Z,1.27
2023-03-03T01:23:13.093Z,1.30
2023-03-03T01:26:18.677Z,1.50
2023-03-03T01:29:24.083Z,1.92
2023-03-03T01:32:29.597Z,1.77
2023-03-03T01:35:36.785Z,1.65
2023-03-03T01:38:45.411Z,1.63
2023-03-03T01:41:50.977Z,2.17
2023-03-03T01:45:13.187Z,1.90
2023-03-03T01:48:20.688Z,1.77
2023-03-03T01:51:27.228Z,2.17
2023-03-03T01:54:39.027Z,1.90
2023-03-03T01:57:46.023Z,2.00
2023-03-03T02:00:53.508Z,1.60
2023-03-03T02:03:58.751Z,2.07
2023-03-03T02:07:07.215Z,2.28
2023-03-03T02:10:16.249Z,1.40
2023-03-03T02:13:21.600Z,1.92
2023-03-03T02:16:28.649Z,2.28
2023-03-03T02:19:38.748Z,2.38
2023-03-03T02:22:47.372Z,2.65
2023-03-03T02:25:59.051Z,2.30
2023-03-03T02:29:10.210Z,2.15
2023-03-03T02:32:16.941Z,2.05
2023-03-03T02:35:30.561Z,2.20
2023-03-03T02:38:38.338Z,2.00
2023-03-03T02:41:46.206Z,2.13
2023-03-03T02:44:54.654Z,3.40
2023-03-03T02:47:59.763Z,2.10
2023-03-03T02:51:04.998Z,2.17
2023-03-03T02:54:10.898Z,2.10
2023-03-03T02:57:16.478Z,2.05
2023-03-03T03:00:24.624Z,2.25
2023-03-03T03:06:34.791Z,1.75
2023-03-03T03:09:40.580Z,2.38
2023-03-03T03:12:45.804Z,1.80
2023-03-03T03:15:54.512Z,1.63
2023-03-03T03:18:59.669Z,1.83
2023-03-03T03:22:05.962Z,1.92
2023-03-03T03:25:14.276Z,1.92
2023-03-03T03:28:20.664Z,1.75
2023-03-03T03:31:28.949Z,1.92
2023-03-03T03:34:34.238Z,1.70
2023-03-03T03:37:39.802Z,2.00
2023-03-03T03:40:45.126Z,2.13
2023-03-03T03:43:50.381Z,1.48
2023-03-03T03:46:58.360Z,1.80
2023-03-03T03:53:09.856Z,2.22
2023-03-03T03:56:15.452Z,1.70
2023-03-03T03:59:22.329Z,1.70
2023-03-03T04:02:30.873Z,1.63
2023-03-03T04:05:36.394Z,2.08
2023-03-03T04:08:41.794Z,2.13
2023-03-03T04:11:47.775Z,1.92
2023-03-03T04:14:54.008Z,1.70
2023-03-03T04:18:01.885Z,2.28
2023-03-03T04:21:08.309Z,2.00
2023-03-03T04:24:13.639Z,1.48
2023-03-03T04:27:19.380Z,1.67
2023-03-03T04:30:24.904Z,2.55
2023-03-03T04:33:35.509Z,4.20
2023-03-03T04:36:42.255Z,3.30
2023-03-03T04:39:47.343Z,1.90
2023-03-03T04:42:52.794Z,3.15
2023-03-03T04:45:58.279Z,1.85
2023-03-03T04:49:10.789Z,1.70
2023-03-03T04:52:18.136Z,1.67
2023-03-03T04:55:23.527Z,2.25
2023-03-03T04:58:28.937Z,1.67
2023-03-03T05:01:34.515Z,1.95
2023-03-03T05:04:43.540Z,1.67
2023-03-03T05:07:48.671Z,2.35
2023-03-03T05:10:55.196Z,1.92
2023-03-03T05:14:00.415Z,1.80
2023-03-03T05:17:06.595Z,2.60
2023-03-03T05:20:16.030Z,1.83
2023-03-03T05:23:22.078Z,1.80
2023-03-03T05:26:27.398Z,1.85
2023-03-03T05:29:33.797Z,2.17
2023-03-03T05:32:39.005Z,2.05
2023-03-03T05:35:47.258Z,2.22
2023-03-03T05:38:52.548Z,2.15
2023-03-03T05:41:58.140Z,2.00
2023-03-03T05:45:03.082Z,1.90
2023-03-03T05:48:10.653Z,2.15
2023-03-03T05:51:18.302Z,1.80
2023-03-03T05:54:23.549Z,2.28
2023-03-03T05:57:28.597Z,1.90
2023-03-03T06:00:33.786Z,1.75
2023-03-03T06:03:38.969Z,1.50
2023-03-03T06:06:47.063Z,2.00
2023-03-03T06:09:52.150Z,2.40
2023-03-03T06:12:58.988Z,2.13
2023-03-03T06:16:04.140Z,1.95
2023-03-03T06:19:09.465Z,1.50
2023-03-03T06:22:17.691Z,2.42
2023-03-03T06:28:28.509Z,1.83
2023-03-03T06:31:33.642Z,2.17
2023-03-03T06:34:39.194Z,4.93
2023-03-03T06:37:46.921Z,2.28
2023-03-03T06:40:52.077Z,2.22
2023-03-03T06:43:57.953Z,2.20
2023-03-03T06:47:03.501Z,2.33
2023-03-03T06:50:09.344Z,2.17
2023-03-03T06:53:17.828Z,2.72
2023-03-03T06:56:23.162Z,2.83
2023-03-03T06:59:30.220Z,2.55
2023-03-03T07:02:35.565Z,3.05
2023-03-03T07:05:40.641Z,2.97
2023-03-03T07:08:48.642Z,3.65
2023-03-03T07:11:54.138Z,3.97
2023-03-03T07:15:01.924Z,2.88
2023-03-03T07:18:11.219Z,2.25
2023-03-03T07:24:28.178Z,2.38
2023-03-03T07:27:34.919Z,2.80
2023-03-03T07:30:40.075Z,1.95
2023-03-03T07:33:47.199Z,2.80
2023-03-03T07:36:52.789Z,2.28
2023-03-03T07:40:01.198Z,2.58
2023-03-03T07:43:20.047Z,2.10
2023-03-03T07:46:28.153Z,2.10
2023-03-03T07:49:37.061Z,2.20
2023-03-03T07:52:42.999Z,3.97
2023-03-03T07:55:51.103Z,1.63
2023-03-03T07:58:56.549Z,2.15
2023-03-03T08:02:01.696Z,2.05
2023-03-03T08:05:24.289Z,2.97
2023-03-03T08:08:32.430Z,1.88
2023-03-03T08:11:40.743Z,2.05
2023-03-03T08:17:51.258Z,1.90
2023-03-03T08:20:58.223Z,1.92
2023-03-03T08:24:03.558Z,2.00
2023-03-03T08:27:11.426Z,1.75
2023-03-03T08:30:17.292Z,2.63
2023-03-03T08:33:22.414Z,1.85
2023-03-03T08:36:27.696Z,2.13
2023-03-03T08:39:33.212Z,2.20
2023-03-03T08:42:40.949Z,2.00
2023-03-03T08:45:46.996Z,2.28
2023-03-03T08:48:53.167Z,2.33
2023-03-03T08:51:58.378Z,1.80
2023-03-03T08:55:04.014Z,1.83
2023-03-03T08:58:11.733Z,1.70
2023-03-03T09:01:17.880Z,1.52
2023-03-03T09:04:23.012Z,2.10
2023-03-03T09:07:28.460Z,1.65
2023-03-03T09:10:34.753Z,2.40
2023-03-03T09:13:42.545Z,2.70
2023-03-03T09:16:49.158Z,2.85
2023-03-03T09:19:54.975Z,2.15
2023-03-03T09:23:00.205Z,1.92
2023-03-03T09:26:20.114Z,1.88
2023-03-03T09:29:31.325Z,2.83
2023-03-03T09:32:39.444Z,2.00
2023-03-03T09:35:45.807Z,2.20
2023-03-03T09:38:50.920Z,2.83
2023-03-03T09:42:11.710Z,2.58
2023-03-03T09:45:25.525Z,2.00
2023-03-03T09:48:45.576Z,1.77
2023-03-03T09:51:57.071Z,1.40
2023-03-03T09:55:07.999Z,1.80
2023-03-03T09:58:24.115Z,1.00
2023-03-03T10:01:46.551Z,1.30
2023-03-03T10:05:04.894Z,1.63
2023-03-03T10:08:20.260Z,1.45
2023-03-03T10:11:29.644Z,2.15
2023-03-03T10:14:55.800Z,1.20
2023-03-03T10:18:07.593Z,1.38
2023-03-03T10:21:13.891Z,1.63
2023-03-03T10:24:25.153Z,1.60
2023-03-03T10:27:38.266Z,1.80
2023-03-03T10:31:02.578Z,1.55
2023-03-03T10:34:16.296Z,1.33
2023-03-03T10:37:24.572Z,1.50
2023-03-03T10:40:35.951Z,1.60
2023-03-03T10:43:59.805Z,1.30
2023-03-03T10:47:13.255Z,1.70
2023-03-03T10:50:24.605Z,1.05
2023-03-03T10:53:32.815Z,1.17
2023-03-03T10:56:52.947Z,1.38
2023-03-03T11:00:06.088Z,1.40
2023-03-03T11:03:26.381Z,1.20
2023-03-03T11:06:41.307Z,1.35
2023-03-03T11:10:01.930Z,1.10
2023-03-03T11:13:14.024Z,1.70
2023-03-03T11:16:23.975Z,2.20
2023-03-03T11:19:38.753Z,1.60
2023-03-03T11:22:50.569Z,1.45
2023-03-03T11:25:57.602Z,1.23
2023-03-03T11:29:08.947Z,1.45
2023-03-03T11:32:22.869Z,1.20
2023-03-03T11:35:30.587Z,1.40
2023-03-03T11:38:48.171Z,1.13
2023-03-03T11:42:01.473Z,1.10
2023-03-03T11:45:09.072Z,0.93
2023-03-03T11:48:18.238Z,1.20
2023-03-03T11:51:27.630Z,1.00
2023-03-03T11:54:38.851Z,0.90
2023-03-03T11:57:46.497Z,1.30
2023-03-03T12:00:54.442Z,1.30
2023-03-03T12:04:01.648Z,1.30
2023-03-03T12:07:19.558Z,1.15
2023-03-03T12:10:31.762Z,1.05
2023-03-03T12:13:42.532Z,1.35
2023-03-03T12:16:54.585Z,2.40
2023-03-03T12:20:02.987Z,1.13
2023-03-03T12:23:15.293Z,1.15
2023-03-03T12:26:28.776Z,1.33
2023-03-03T12:29:39.133Z,1.00
2023-03-03T12:32:52.178Z,1.35
2023-03-03T12:36:01.736Z,1.33
2023-03-03T12:39:12.013Z,1.15
2023-03-03T12:42:23.751Z,1.00
2023-03-03T12:45:36.309Z,1.30
2023-03-03T12:48:43.657Z,1.38
2023-03-03T12:51:52.535Z,1.45
2023-03-03T12:55:02.442Z,1.50
2023-03-03T12:58:14.619Z,1.50
2023-03-03T13:01:28.489Z,1.80
2023-03-03T13:04:37.566Z,2.42
2023-03-03T13:07:46.412Z,1.63
2023-03-03T13:10:56.017Z,1.73
2023-03-03T13:14:05.683Z,2.40
2023-03-03T13:17:20.609Z,1.17
2023-03-03T13:20:29.214Z,1.52
2023-03-03T13:23:39.081Z,1.45
2023-03-03T13:26:46.590Z,1.63
2023-03-03T13:30:00.120Z,1.80
2023-03-03T13:33:08.414Z,2.00
2023-03-03T13:36:14.939Z,2.22
2023-03-03T13:39:23.080Z,1.60
2023-03-03T13:42:32.337Z,2.17
2023-03-03T13:45:44.847Z,2.58
2023-03-03T13:49:00.972Z,2.50
2023-03-03T13:52:08.623Z,2.20
2023-03-03T13:55:20.490Z,2.53
2023-03-03T13:58:28.781Z,2.10
2023-03-03T14:01:42.106Z,1.70
2023-03-03T14:04:54.013Z,1.83
2023-03-03T14:08:01.942Z,1.60
2023-03-03T14:11:10.509Z,1.63
2023-03-03T14:14:22.531Z,1.40
2023-03-03T14:17:35.140Z,1.40
2023-03-03T14:20:42.793Z,2.17
2023-03-03T14:23:53.223Z,1.58
2023-03-03T14:26:59.541Z,2.00
2023-03-03T14:30:19.482Z,1.50
2023-03-03T14:33:31.127Z,2.20
2023-03-03T14:36:38.790Z,1.95
2023-03-03T14:39:43.986Z,2.00
2023-03-03T14:42:51.240Z,1.90
2023-03-03T14:45:57.250Z,1.83
2023-03-03T14:49:06.179Z,1.65
2023-03-03T14:52:19.399Z,2.08
2023-03-03T14:55:36.410Z,1.63
2023-03-03T14:58:43.135Z,1.73
2023-03-03T15:01:48.545Z,1.70
2023-03-03T15:05:11.865Z,1.60
2023-03-03T15:08:18.067Z,1.17
2023-03-03T15:11:28.786Z,1.25
2023-03-03T15:14:38.031Z,1.25
2023-03-03T15:17:44.533Z,1.10
2023-03-03T15:20:54.368Z,0.90
2023-03-03T15:24:01.753Z,1.25
2023-03-03T15:27:08.691Z,1.40
2023-03-03T15:30:18.262Z,1.05
2023-03-03T15:33:29.635Z,2.00
2023-03-03T15:36:40.567Z,1.50
2023-03-03T15:39:50.440Z,1.83
2023-03-03T15:43:00.103Z,1.70
2023-03-03T15:46:09.924Z,2.20
2023-03-03T15:49:23.135Z,2.22
2023-03-03T15:52:37.582Z,2.13
2023-03-03T15:55:49.120Z,1.52
2023-03-03T15:59:05.457Z,2.15
2023-03-03T16:02:17.610Z,2.08
2023-03-03T16:05:25.441Z,2.03
2023-03-03T16:08:39.697Z,2.30
2023-03-03T16:11:50.184Z,2.58
2023-03-03T16:15:04.989Z,2.70
2023-03-03T16:18:16.968Z,1.90
2023-03-03T16:21:26.634Z,2.33
2023-03-03T16:24:40.191Z,2.28
2023-03-03T16:27:49.671Z,2.28
2023-03-03T16:31:00.115Z,2.08
2023-03-03T16:34:09.755Z,3.08
2023-03-03T16:37:17.724Z,3.28
2023-03-03T16:40:27.064Z,4.22
2023-03-03T16:43:37.843Z,3.38
2023-03-03T16:46:44.424Z,3.30
2023-03-03T16:49:54.546Z,2.85
2023-03-03T16:53:04.136Z,2.13
2023-03-03T16:56:13.877Z,2.28
2023-03-03T16:59:33.948Z,1.85
2023-03-03T17:02:57.205Z,2.10
2023-03-03T17:06:07.181Z,2.00
2023-03-03T17:09:32.945Z,1.85
2023-03-03T17:12:49.709Z,2.28
2023-03-03T17:16:03.373Z,2.20
2023-03-03T17:19:16.410Z,2.83
2023-03-03T17:22:24.594Z,2.22
2023-03-03T17:25:33.968Z,2.00
2023-03-03T17:28:46.096Z,2.10
2023-03-03T17:31:55.257Z,2.38
2023-03-03T17:35:11.841Z,1.73
2023-03-03T17:38:23.414Z,2.40
2023-03-03T17:41:32.021Z,1.60
2023-03-03T17:44:42.450Z,2.10
2023-03-03T17:47:53.920Z,2.25
2023-03-03T17:51:04.233Z,2.30
2023-03-03T17:54:21.661Z,2.15
2023-03-03T17:57:33.396Z,2.27
2023-03-03T18:00:46.855Z,1.80
2023-03-03T18:04:19.282Z,2.88
2023-03-03T18:07:43.896Z,2.97
2023-03-03T18:11:01.888Z,2.90
2023-03-03T18:14:21.990Z,2.75
2023-03-03T18:17:38.507Z,2.47
2023-03-03T18:21:10.977Z,3.60
2023-03-03T18:24:33.502Z,2.90
2023-03-03T18:27:39.980Z,2.80
2023-03-03T18:30:59.902Z,2.60
2023-03-03T18:34:11.669Z,2.58
2023-03-03T18:37:32.251Z,4.82
2023-03-03T18:40:52.982Z,3.13
2023-03-03T18:44:02.583Z,2.50
2023-03-03T18:50:41.500Z,2.47
2023-03-03T18:54:02.872Z,2.45
2023-03-03T18:57:21.145Z,2.38
2023-03-03T19:00:30.559Z,1.88
2023-03-03T19:03:37.049Z,3.25
2023-03-03T19:06:56.999Z,1.98
2023-03-03T19:10:03.930Z,2.50
2023-03-03T19:13:33.775Z,2.15
2023-03-03T19:16:39.705Z,1.80
2023-03-03T19:20:00.779Z,2.47
2023-03-03T19:23:09.887Z,2.67
2023-03-03T19:26:35.110Z,1.90
2023-03-03T19:29:55.006Z,2.53
2023-03-03T19:33:15.053Z,2.30
2023-03-03T19:36:46.980Z,2.88
2023-03-03T19:40:01.092Z,2.03
2023-03-03T19:43:13.729Z,2.13
2023-03-03T19:46:25.250Z,2.30
2023-03-03T19:49:36.197Z,2.40
2023-03-03T19:52:42.966Z,2.75
2023-03-03T19:56:01.239Z,2.35
2023-03-03T20:02:30.964Z,2.60
2023-03-03T20:05:40.720Z,2.30
2023-03-03T20:08:48.793Z,2.22
2023-03-03T20:12:04.716Z,8.70
2023-03-03T20:15:15.270Z,2.83
2023-03-03T20:18:45.130Z,3.28
2023-03-03T20:21:54.397Z,3.40
2023-03-03T20:25:09.980Z,2.72
2023-03-03T20:28:27.204Z,2.88
2023-03-03T20:31:35.942Z,3.30
2023-03-03T20:37:48.536Z,3.72
2023-03-03T20:40:56.189Z,3.60
2023-03-03T20:44:08.853Z,3.55
2023-03-03T20:47:16.955Z,3.10
2023-03-03T20:50:26.536Z,2.83
2023-03-03T20:53:36.834Z,3.53
2023-03-03T20:56:46.717Z,2.72
2023-03-03T20:59:57.976Z,3.53
2023-03-03T21:03:09.197Z,2.88
2023-03-03T21:06:15.940Z,3.88
2023-03-03T21:09:28.806Z,4.40
2023-03-03T21:12:34.450Z,3.72
2023-03-03T21:15:42.229Z,4.00
2023-03-03T21:18:58.616Z,3.55
2023-03-03T21:22:04.422Z,3.47
2023-03-03T21:25:10.007Z,3.10
2023-03-03T21:28:19.137Z,3.05
2023-03-03T21:31:27.368Z,3.08
2023-03-03T21:34:33.331Z,3.20
2023-03-03T21:37:49.372Z,3.20
2023-03-03T21:41:01.803Z,2.90
2023-03-03T21:44:27.513Z,3.20
2023-03-03T21:47:35.379Z,3.33
2023-03-03T21:50:43.022Z,3.10
2023-03-03T21:53:48.030Z,3.15
2023-03-03T21:56:53.786Z,3.30
2023-03-03T21:59:59.088Z,2.95
2023-03-03T22:03:06.957Z,2.58
2023-03-03T22:06:12.072Z,3.28
2023-03-03T22:09:17.522Z,3.25
2023-03-03T22:12:22.693Z,4.40
2023-03-03T22:15:28.286Z,3.92
2023-03-03T22:18:36.205Z,3.20
2023-03-03T22:21:42.219Z,3.95
2023-03-03T22:24:47.427Z,3.58
2023-03-03T22:27:52.691Z,4.20
2023-03-03T22:30:57.925Z,4.30
2023-03-03T22:34:06.063Z,5.25
2023-03-03T22:40:17.153Z,4.18
2023-03-03T22:43:22.314Z,3.47
2023-03-03T22:46:27.806Z,2.90
2023-03-03T22:49:35.981Z,3.88
2023-03-03T22:52:41.347Z,3.25
2023-03-03T22:55:46.580Z,3.03
2023-03-03T22:58:52.206Z,3.33
2023-03-03T23:01:57.345Z,3.40
2023-03-03T23:05:08.712Z,2.83
2023-03-03T23:08:15.386Z,2.92
2023-03-03T23:11:20.574Z,2.35
2023-03-03T23:14:25.773Z,2.85
2023-03-03T23:17:30.975Z,2.72
2023-03-03T23:20:38.845Z,2.20
2023-03-03T23:23:44.106Z,2.33
2023-03-03T23:26:52.019Z,2.85
2023-03-03T23:29:57.750Z,2.80
2023-03-03T23:33:03.123Z,3.25
2023-03-03T23:36:11.077Z,4.07
2023-03-03T23:39:16.960Z,3.50
2023-03-03T23:42:22.492Z,3.33
2023-03-03T23:45:27.533Z,3.72
2023-03-03T23:48:32.848Z,4.15
2023-03-03T23:51:41.433Z,3.53
2023-03-03T23:54:46.403Z,3.45
2023-03-03T23:57:51.899Z,3.90
